sensor_id;sensor_type;location;lat;lon;timestamp;P1;durP1;ratioP1;P2;durP2;ratioP2
75774;SDS011;64505;51.458;7.556;2023-02-01T00:00:32;27.77;;;7.65;;
75774;SDS011;64505;51.458;7.556;2023-02-01T00:02:35;25.13;;;7.82;;
75774;SDS011;64505;51.458;7.556;2023-02-01T00:04:40;23.42;;;7.88;;
75774;SDS011;64505;51.458;7.556;2023-02-01T00:06:42;26.00;;;7.95;;
75774;SDS011;64505;51.458;7.556;2023-02-01T00:08:43;16.90;;;7.95;;
75774;SDS011;64505;51.458;7.556;2023-02-01T00:10:45;19.48;;;7.47;;
75774;SDS011;64505;51.458;7.556;2023-02-01T00:12:46;24.02;;;7.78;;
75774;SDS011;64505;51.458;7.556;2023-02-01T00:14:47;21.70;;;8.60;;
75774;SDS011;64505;51.458;7.556;2023-02-01T00:16:49;24.30;;;7.35;;
75774;SDS011;64505;51.458;7.556;2023-02-01T00:18:51;23.40;;;7.88;;
75774;SDS011;64505;51.458;7.556;2023-02-01T00:20:57;16.67;;;7.38;;
75774;SDS011;64505;51.458;7.556;2023-02-01T00:22:59;22.55;;;7.28;;
75774;SDS011;64505;51.458;7.556;2023-02-01T00:25:00;19.58;;;7.45;;
75774;SDS011;64505;51.458;7.556;2023-02-01T00:27:02;17.85;;;6.38;;
75774;SDS011;64505;51.458;7.556;2023-02-01T00:29:04;14.57;;;5.28;;
75774;SDS011;64505;51.458;7.556;2023-02-01T00:31:08;26.63;;;5.72;;
75774;SDS011;64505;51.458;7.556;2023-02-01T00:33:10;25.95;;;6.10;;
75774;SDS011;64505;51.458;7.556;2023-02-01T00:35:11;16.15;;;5.30;;
75774;SDS011;64505;51.458;7.556;2023-02-01T00:37:13;17.17;;;5.50;;
75774;SDS011;64505;51.458;7.556;2023-02-01T00:39:14;19.70;;;5.43;;
75774;SDS011;64505;51.458;7.556;2023-02-01T00:41:18;16.98;;;4.90;;
75774;SDS011;64505;51.458;7.556;2023-02-01T00:43:21;17.02;;;5.10;;
75774;SDS011;64505;51.458;7.556;2023-02-01T00:45:22;19.10;;;5.28;;
75774;SDS011;64505;51.458;7.556;2023-02-01T00:47:23;16.73;;;4.47;;
75774;SDS011;64505;51.458;7.556;2023-02-01T00:49:25;16.50;;;4.63;;
75774;SDS011;64505;51.458;7.556;2023-02-01T00:51:27;15.38;;;3.58;;
75774;SDS011;64505;51.458;7.556;2023-02-01T00:53:29;13.60;;;4.15;;
75774;SDS011;64505;51.458;7.556;2023-02-01T00:55:31;14.10;;;3.70;;
75774;SDS011;64505;51.458;7.556;2023-02-01T00:57:32;16.92;;;4.32;;
75774;SDS011;64505;51.458;7.556;2023-02-01T00:59:34;13.75;;;3.35;;
75774;SDS011;64505;51.458;7.556;2023-02-01T01:01:35;15.75;;;3.72;;
75774;SDS011;64505;51.458;7.556;2023-02-01T01:03:38;14.35;;;3.72;;
75774;SDS011;64505;51.458;7.556;2023-02-01T01:05:46;16.30;;;3.63;;
75774;SDS011;64505;51.458;7.556;2023-02-01T01:07:49;16.40;;;3.47;;
75774;SDS011;64505;51.458;7.556;2023-02-01T01:09:50;10.40;;;3.08;;
75774;SDS011;64505;51.458;7.556;2023-02-01T01:11:52;13.18;;;2.85;;
75774;SDS011;64505;51.458;7.556;2023-02-01T01:13:54;9.88;;;2.67;;
75774;SDS011;64505;51.458;7.556;2023-02-01T01:15:59;13.00;;;2.83;;
75774;SDS011;64505;51.458;7.556;2023-02-01T01:18:03;16.98;;;2.90;;
75774;SDS011;64505;51.458;7.556;2023-02-01T01:20:05;12.20;;;2.53;;
75774;SDS011;64505;51.458;7.556;2023-02-01T01:22:07;11.63;;;3.28;;
75774;SDS011;64505;51.458;7.556;2023-02-01T01:24:09;10.40;;;2.80;;
75774;SDS011;64505;51.458;7.556;2023-02-01T01:26:12;12.13;;;2.80;;
75774;SDS011;64505;51.458;7.556;2023-02-01T01:28:16;7.13;;;2.55;;
75774;SDS011;64505;51.458;7.556;2023-02-01T01:30:18;12.38;;;3.05;;
75774;SDS011;64505;51.458;7.556;2023-02-01T01:32:20;18.13;;;3.17;;
75774;SDS011;64505;51.458;7.556;2023-02-01T01:34:21;16.13;;;2.63;;
75774;SDS011;64505;51.458;7.556;2023-02-01T01:36:23;18.15;;;3.15;;
75774;SDS011;64505;51.458;7.556;2023-02-01T01:38:25;11.88;;;2.67;;
75774;SDS011;64505;51.458;7.556;2023-02-01T01:40:27;11.95;;;3.20;;
75774;SDS011;64505;51.458;7.556;2023-02-01T01:42:30;14.35;;;3.10;;
75774;SDS011;64505;51.458;7.556;2023-02-01T01:44:55;11.80;;;3.00;;
75774;SDS011;64505;51.458;7.556;2023-02-01T01:46:59;10.85;;;3.28;;
75774;SDS011;64505;51.458;7.556;2023-02-01T01:49:15;15.18;;;3.05;;
75774;SDS011;64505;51.458;7.556;2023-02-01T01:51:21;21.45;;;3.40;;
75774;SDS011;64505;51.458;7.556;2023-02-01T01:53:27;9.73;;;2.88;;
75774;SDS011;64505;51.458;7.556;2023-02-01T01:55:34;11.43;;;3.08;;
75774;SDS011;64505;51.458;7.556;2023-02-01T01:57:39;10.90;;;2.85;;
75774;SDS011;64505;51.458;7.556;2023-02-01T01:59:46;12.85;;;3.30;;
75774;SDS011;64505;51.458;7.556;2023-02-01T02:01:53;14.35;;;3.15;;
75774;SDS011;64505;51.458;7.556;2023-02-01T02:03:54;15.15;;;3.83;;
75774;SDS011;64505;51.458;7.556;2023-02-01T02:05:57;13.80;;;3.10;;
75774;SDS011;64505;51.458;7.556;2023-02-01T02:08:00;12.90;;;3.40;;
75774;SDS011;64505;51.458;7.556;2023-02-01T02:10:03;11.63;;;3.50;;
75774;SDS011;64505;51.458;7.556;2023-02-01T02:12:07;14.35;;;3.40;;
75774;SDS011;64505;51.458;7.556;2023-02-01T02:14:09;11.35;;;2.85;;
75774;SDS011;64505;51.458;7.556;2023-02-01T02:21:35;10.40;;;2.80;;
75774;SDS011;64505;51.458;7.556;2023-02-01T02:23:17;9.20;;;3.40;;
75774;SDS011;64505;51.458;7.556;2023-02-01T02:36:37;12.88;;;2.25;;
75774;SDS011;64505;51.458;7.556;2023-02-01T02:38:58;15.07;;;3.47;;
75774;SDS011;64505;51.458;7.556;2023-02-01T02:41:27;14.18;;;3.15;;
75774;SDS011;64505;51.458;7.556;2023-02-01T02:43:53;11.13;;;3.22;;
75774;SDS011;64505;51.458;7.556;2023-02-01T02:46:32;22.30;;;4.30;;
75774;SDS011;64505;51.458;7.556;2023-02-01T02:51:21;12.10;;;3.10;;
75774;SDS011;64505;51.458;7.556;2023-02-01T02:53:52;15.20;;;3.83;;
75774;SDS011;64505;51.458;7.556;2023-02-01T02:56:29;10.68;;;2.88;;
75774;SDS011;64505;51.458;7.556;2023-02-01T02:58:50;15.75;;;3.42;;
75774;SDS011;64505;51.458;7.556;2023-02-01T03:01:11;17.17;;;3.65;;
75774;SDS011;64505;51.458;7.556;2023-02-01T03:03:31;10.50;;;2.47;;
75774;SDS011;64505;51.458;7.556;2023-02-01T03:05:51;9.50;;;2.25;;
75774;SDS011;64505;51.458;7.556;2023-02-01T03:07:54;19.00;;;3.33;;
75774;SDS011;64505;51.458;7.556;2023-02-01T03:09:57;12.45;;;3.08;;
75774;SDS011;64505;51.458;7.556;2023-02-01T03:12:07;16.40;;;2.90;;
75774;SDS011;64505;51.458;7.556;2023-02-01T03:14:31;14.10;;;2.80;;
75774;SDS011;64505;51.458;7.556;2023-02-01T03:18:54;12.43;;;2.88;;
75774;SDS011;64505;51.458;7.556;2023-02-01T03:20:59;16.80;;;2.90;;
75774;SDS011;64505;51.458;7.556;2023-02-01T03:23:04;10.63;;;2.45;;
75774;SDS011;64505;51.458;7.556;2023-02-01T03:25:09;13.65;;;2.65;;
75774;SDS011;64505;51.458;7.556;2023-02-01T03:29:22;14.65;;;2.78;;
75774;SDS011;64505;51.458;7.556;2023-02-01T03:31:28;20.50;;;4.00;;
75774;SDS011;64505;51.458;7.556;2023-02-01T03:33:30;10.93;;;2.28;;
75774;SDS011;64505;51.458;7.556;2023-02-01T03:38:01;11.68;;;2.25;;
75774;SDS011;64505;51.458;7.556;2023-02-01T03:40:12;18.33;;;2.20;;
75774;SDS011;64505;51.458;7.556;2023-02-01T03:42:18;10.65;;;2.15;;
75774;SDS011;64505;51.458;7.556;2023-02-01T03:44:32;11.25;;;1.95;;
75774;SDS011;64505;51.458;7.556;2023-02-01T03:47:03;13.80;;;2.10;;
75774;SDS011;64505;51.458;7.556;2023-02-01T03:49:09;15.48;;;2.38;;
75774;SDS011;64505;51.458;7.556;2023-02-01T03:51:14;7.47;;;1.85;;
75774;SDS011;64505;51.458;7.556;2023-02-01T03:53:17;15.18;;;1.75;;
75774;SDS011;64505;51.458;7.556;2023-02-01T03:55:22;11.18;;;2.15;;
75774;SDS011;64505;51.458;7.556;2023-02-01T03:57:27;12.13;;;1.80;;
75774;SDS011;64505;51.458;7.556;2023-02-01T03:59:32;8.98;;;1.95;;
75774;SDS011;64505;51.458;7.556;2023-02-01T04:01:34;7.32;;;1.70;;
75774;SDS011;64505;51.458;7.556;2023-02-01T04:03:35;14.15;;;2.28;;
75774;SDS011;64505;51.458;7.556;2023-02-01T04:05:36;18.52;;;2.70;;
75774;SDS011;64505;51.458;7.556;2023-02-01T04:07:38;11.93;;;1.98;;
75774;SDS011;64505;51.458;7.556;2023-02-01T04:09:39;10.45;;;1.83;;
75774;SDS011;64505;51.458;7.556;2023-02-01T04:11:41;9.77;;;2.22;;
75774;SDS011;64505;51.458;7.556;2023-02-01T04:13:42;18.08;;;2.42;;
75774;SDS011;64505;51.458;7.556;2023-02-01T04:15:44;11.18;;;2.20;;
75774;SDS011;64505;51.458;7.556;2023-02-01T04:17:46;15.77;;;2.53;;
75774;SDS011;64505;51.458;7.556;2023-02-01T04:19:48;13.30;;;2.40;;
75774;SDS011;64505;51.458;7.556;2023-02-01T04:21:49;15.52;;;1.77;;
75774;SDS011;64505;51.458;7.556;2023-02-01T04:23:51;9.80;;;2.47;;
75774;SDS011;64505;51.458;7.556;2023-02-01T04:25:52;14.18;;;2.17;;
75774;SDS011;64505;51.458;7.556;2023-02-01T04:27:54;16.27;;;2.42;;
75774;SDS011;64505;51.458;7.556;2023-02-01T04:29:55;14.38;;;2.25;;
75774;SDS011;64505;51.458;7.556;2023-02-01T04:31:58;13.15;;;2.03;;
75774;SDS011;64505;51.458;7.556;2023-02-01T04:34:00;11.07;;;2.45;;
75774;SDS011;64505;51.458;7.556;2023-02-01T04:36:01;20.30;;;2.40;;
75774;SDS011;64505;51.458;7.556;2023-02-01T04:38:02;12.55;;;3.03;;
75774;SDS011;64505;51.458;7.556;2023-02-01T04:40:04;14.88;;;2.60;;
75774;SDS011;64505;51.458;7.556;2023-02-01T04:42:06;18.10;;;3.22;;
75774;SDS011;64505;51.458;7.556;2023-02-01T04:44:09;9.98;;;2.25;;
75774;SDS011;64505;51.458;7.556;2023-02-01T04:46:15;11.13;;;1.88;;
75774;SDS011;64505;51.458;7.556;2023-02-01T04:48:17;11.18;;;1.50;;
75774;SDS011;64505;51.458;7.556;2023-02-01T04:50:20;14.43;;;2.15;;
75774;SDS011;64505;51.458;7.556;2023-02-01T04:52:22;14.45;;;2.50;;
75774;SDS011;64505;51.458;7.556;2023-02-01T04:54:23;14.07;;;2.20;;
75774;SDS011;64505;51.458;7.556;2023-02-01T04:56:24;12.45;;;2.53;;
75774;SDS011;64505;51.458;7.556;2023-02-01T04:58:26;24.05;;;2.88;;
75774;SDS011;64505;51.458;7.556;2023-02-01T05:00:27;13.57;;;2.35;;
75774;SDS011;64505;51.458;7.556;2023-02-01T05:02:29;11.90;;;2.28;;
75774;SDS011;64505;51.458;7.556;2023-02-01T05:04:30;10.57;;;1.98;;
75774;SDS011;64505;51.458;7.556;2023-02-01T05:06:32;12.35;;;3.15;;
75774;SDS011;64505;51.458;7.556;2023-02-01T05:08:33;9.93;;;2.55;;
75774;SDS011;64505;51.458;7.556;2023-02-01T05:10:36;9.05;;;2.35;;
75774;SDS011;64505;51.458;7.556;2023-02-01T05:12:38;14.88;;;3.10;;
75774;SDS011;64505;51.458;7.556;2023-02-01T05:16:59;16.40;;;2.65;;
75774;SDS011;64505;51.458;7.556;2023-02-01T05:19:00;14.77;;;2.67;;
75774;SDS011;64505;51.458;7.556;2023-02-01T05:21:02;11.95;;;2.30;;
75774;SDS011;64505;51.458;7.556;2023-02-01T05:23:03;21.55;;;3.42;;
75774;SDS011;64505;51.458;7.556;2023-02-01T05:25:05;16.40;;;2.67;;
75774;SDS011;64505;51.458;7.556;2023-02-01T05:27:08;13.63;;;2.67;;
75774;SDS011;64505;51.458;7.556;2023-02-01T05:29:10;15.13;;;2.20;;
75774;SDS011;64505;51.458;7.556;2023-02-01T05:31:12;15.65;;;2.72;;
75774;SDS011;64505;51.458;7.556;2023-02-01T05:33:14;17.80;;;2.45;;
75774;SDS011;64505;51.458;7.556;2023-02-01T05:35:15;10.93;;;2.63;;
75774;SDS011;64505;51.458;7.556;2023-02-01T05:37:17;9.05;;;2.33;;
75774;SDS011;64505;51.458;7.556;2023-02-01T05:39:18;13.65;;;2.25;;
75774;SDS011;64505;51.458;7.556;2023-02-01T05:41:20;25.23;;;2.80;;
75774;SDS011;64505;51.458;7.556;2023-02-01T05:43:21;13.00;;;2.60;;
75774;SDS011;64505;51.458;7.556;2023-02-01T05:45:23;14.60;;;2.85;;
75774;SDS011;64505;51.458;7.556;2023-02-01T05:47:25;23.40;;;2.80;;
75774;SDS011;64505;51.458;7.556;2023-02-01T05:49:26;14.52;;;3.25;;
75774;SDS011;64505;51.458;7.556;2023-02-01T05:51:28;14.10;;;2.10;;
75774;SDS011;64505;51.458;7.556;2023-02-01T05:53:29;13.88;;;2.10;;
75774;SDS011;64505;51.458;7.556;2023-02-01T05:55:31;13.88;;;2.13;;
75774;SDS011;64505;51.458;7.556;2023-02-01T05:57:33;17.00;;;2.80;;
75774;SDS011;64505;51.458;7.556;2023-02-01T05:59:34;15.63;;;2.63;;
75774;SDS011;64505;51.458;7.556;2023-02-01T06:01:38;12.55;;;2.55;;
75774;SDS011;64505;51.458;7.556;2023-02-01T06:03:39;13.35;;;2.30;;
75774;SDS011;64505;51.458;7.556;2023-02-01T06:05:43;10.07;;;2.30;;
75774;SDS011;64505;51.458;7.556;2023-02-01T06:07:44;15.60;;;2.55;;
75774;SDS011;64505;51.458;7.556;2023-02-01T06:09:46;20.08;;;3.35;;
75774;SDS011;64505;51.458;7.556;2023-02-01T06:11:47;16.90;;;2.67;;
75774;SDS011;64505;51.458;7.556;2023-02-01T06:13:49;14.55;;;3.90;;
75774;SDS011;64505;51.458;7.556;2023-02-01T06:15:51;15.73;;;2.47;;
75774;SDS011;64505;51.458;7.556;2023-02-01T06:17:53;13.25;;;2.63;;
75774;SDS011;64505;51.458;7.556;2023-02-01T06:19:55;13.32;;;2.70;;
75774;SDS011;64505;51.458;7.556;2023-02-01T06:21:57;17.88;;;3.90;;
75774;SDS011;64505;51.458;7.556;2023-02-01T06:23:58;10.23;;;2.55;;
75774;SDS011;64505;51.458;7.556;2023-02-01T06:26:01;11.32;;;2.70;;
75774;SDS011;64505;51.458;7.556;2023-02-01T06:28:04;13.90;;;2.55;;
75774;SDS011;64505;51.458;7.556;2023-02-01T06:30:07;14.70;;;2.70;;
75774;SDS011;64505;51.458;7.556;2023-02-01T06:32:09;12.05;;;2.55;;
75774;SDS011;64505;51.458;7.556;2023-02-01T06:34:10;12.55;;;2.90;;
75774;SDS011;64505;51.458;7.556;2023-02-01T06:36:11;21.00;;;3.03;;
75774;SDS011;64505;51.458;7.556;2023-02-01T06:38:13;19.35;;;3.20;;
75774;SDS011;64505;51.458;7.556;2023-02-01T06:40:15;12.25;;;2.92;;
75774;SDS011;64505;51.458;7.556;2023-02-01T06:42:16;13.35;;;2.88;;
75774;SDS011;64505;51.458;7.556;2023-02-01T06:44:18;11.70;;;2.88;;
75774;SDS011;64505;51.458;7.556;2023-02-01T06:46:19;15.55;;;3.03;;
75774;SDS011;64505;51.458;7.556;2023-02-01T06:48:21;11.40;;;2.75;;
75774;SDS011;64505;51.458;7.556;2023-02-01T06:50:22;22.88;;;3.83;;
75774;SDS011;64505;51.458;7.556;2023-02-01T06:52:24;17.27;;;2.80;;
75774;SDS011;64505;51.458;7.556;2023-02-01T06:54:26;11.38;;;2.78;;
75774;SDS011;64505;51.458;7.556;2023-02-01T06:56:28;15.05;;;2.83;;
75774;SDS011;64505;51.458;7.556;2023-02-01T06:58:30;17.02;;;2.88;;
75774;SDS011;64505;51.458;7.556;2023-02-01T07:00:33;24.35;;;3.85;;
75774;SDS011;64505;51.458;7.556;2023-02-01T07:02:34;12.50;;;2.88;;
75774;SDS011;64505;51.458;7.556;2023-02-01T07:04:36;17.15;;;3.55;;
75774;SDS011;64505;51.458;7.556;2023-02-01T07:06:38;15.23;;;2.47;;
75774;SDS011;64505;51.458;7.556;2023-02-01T07:08:40;13.07;;;2.35;;
75774;SDS011;64505;51.458;7.556;2023-02-01T07:10:42;14.68;;;2.90;;
75774;SDS011;64505;51.458;7.556;2023-02-01T07:12:43;9.70;;;2.08;;
75774;SDS011;64505;51.458;7.556;2023-02-01T07:14:44;10.80;;;2.45;;
75774;SDS011;64505;51.458;7.556;2023-02-01T07:16:46;14.18;;;3.30;;
75774;SDS011;64505;51.458;7.556;2023-02-01T07:18:48;17.73;;;2.67;;
75774;SDS011;64505;51.458;7.556;2023-02-01T07:20:51;21.00;;;3.00;;
75774;SDS011;64505;51.458;7.556;2023-02-01T07:22:56;15.23;;;3.03;;
75774;SDS011;64505;51.458;7.556;2023-02-01T07:24:58;18.70;;;2.65;;
75774;SDS011;64505;51.458;7.556;2023-02-01T07:26:59;17.88;;;3.38;;
75774;SDS011;64505;51.458;7.556;2023-02-01T07:29:01;12.50;;;2.95;;
75774;SDS011;64505;51.458;7.556;2023-02-01T07:31:03;13.57;;;2.63;;
75774;SDS011;64505;51.458;7.556;2023-02-01T07:33:09;14.32;;;2.60;;
75774;SDS011;64505;51.458;7.556;2023-02-01T07:35:10;14.43;;;2.30;;
75774;SDS011;64505;51.458;7.556;2023-02-01T07:37:11;11.88;;;2.72;;
75774;SDS011;64505;51.458;7.556;2023-02-01T07:39:13;12.80;;;2.67;;
75774;SDS011;64505;51.458;7.556;2023-02-01T07:41:14;13.98;;;2.72;;
75774;SDS011;64505;51.458;7.556;2023-02-01T07:43:16;9.82;;;2.28;;
75774;SDS011;64505;51.458;7.556;2023-02-01T07:45:17;15.57;;;2.88;;
75774;SDS011;64505;51.458;7.556;2023-02-01T07:47:22;14.77;;;2.70;;
75774;SDS011;64505;51.458;7.556;2023-02-01T07:49:23;11.90;;;2.72;;
75774;SDS011;64505;51.458;7.556;2023-02-01T07:51:24;13.73;;;2.35;;
75774;SDS011;64505;51.458;7.556;2023-02-01T07:53:26;8.48;;;2.00;;
75774;SDS011;64505;51.458;7.556;2023-02-01T07:55:28;17.17;;;3.58;;
75774;SDS011;64505;51.458;7.556;2023-02-01T07:57:29;13.25;;;3.55;;
75774;SDS011;64505;51.458;7.556;2023-02-01T07:59:31;20.38;;;3.75;;
75774;SDS011;64505;51.458;7.556;2023-02-01T08:01:32;16.10;;;3.17;;
75774;SDS011;64505;51.458;7.556;2023-02-01T08:03:33;18.83;;;3.22;;
75774;SDS011;64505;51.458;7.556;2023-02-01T08:05:35;21.40;;;3.70;;
75774;SDS011;64505;51.458;7.556;2023-02-01T08:07:37;9.43;;;2.95;;
75774;SDS011;64505;51.458;7.556;2023-02-01T08:09:39;17.10;;;3.28;;
75774;SDS011;64505;51.458;7.556;2023-02-01T08:11:40;15.73;;;3.00;;
75774;SDS011;64505;51.458;7.556;2023-02-01T08:13:42;16.38;;;3.40;;
75774;SDS011;64505;51.458;7.556;2023-02-01T08:15:44;15.95;;;2.78;;
75774;SDS011;64505;51.458;7.556;2023-02-01T08:17:49;15.55;;;3.42;;
75774;SDS011;64505;51.458;7.556;2023-02-01T08:19:51;18.63;;;3.83;;
75774;SDS011;64505;51.458;7.556;2023-02-01T08:21:52;16.42;;;3.47;;
75774;SDS011;64505;51.458;7.556;2023-02-01T08:23:54;22.55;;;3.70;;
75774;SDS011;64505;51.458;7.556;2023-02-01T08:26:14;10.93;;;2.95;;
75774;SDS011;64505;51.458;7.556;2023-02-01T08:28:17;19.65;;;3.70;;
75774;SDS011;64505;51.458;7.556;2023-02-01T08:30:18;16.20;;;3.90;;
75774;SDS011;64505;51.458;7.556;2023-02-01T08:32:20;19.20;;;3.85;;
75774;SDS011;64505;51.458;7.556;2023-02-01T08:34:22;33.40;;;6.18;;
75774;SDS011;64505;51.458;7.556;2023-02-01T08:36:24;13.45;;;3.33;;
75774;SDS011;64505;51.458;7.556;2023-02-01T08:38:27;17.67;;;4.28;;
75774;SDS011;64505;51.458;7.556;2023-02-01T08:40:29;13.18;;;3.50;;
75774;SDS011;64505;51.458;7.556;2023-02-01T08:42:30;13.85;;;3.22;;
75774;SDS011;64505;51.458;7.556;2023-02-01T08:44:50;16.33;;;3.20;;
75774;SDS011;64505;51.458;7.556;2023-02-01T08:46:52;16.17;;;3.72;;
75774;SDS011;64505;51.458;7.556;2023-02-01T08:48:54;14.35;;;3.25;;
75774;SDS011;64505;51.458;7.556;2023-02-01T08:50:55;16.08;;;4.28;;
75774;SDS011;64505;51.458;7.556;2023-02-01T08:52:57;14.57;;;3.72;;
75774;SDS011;64505;51.458;7.556;2023-02-01T08:54:58;18.27;;;3.95;;
75774;SDS011;64505;51.458;7.556;2023-02-01T08:57:00;17.98;;;3.40;;
75774;SDS011;64505;51.458;7.556;2023-02-01T08:59:01;14.35;;;3.58;;
75774;SDS011;64505;51.458;7.556;2023-02-01T09:01:09;16.02;;;3.53;;
75774;SDS011;64505;51.458;7.556;2023-02-01T09:03:13;16.42;;;3.50;;
75774;SDS011;64505;51.458;7.556;2023-02-01T09:05:15;20.98;;;3.67;;
75774;SDS011;64505;51.458;7.556;2023-02-01T09:07:19;17.05;;;4.07;;
75774;SDS011;64505;51.458;7.556;2023-02-01T09:09:21;14.90;;;3.97;;
75774;SDS011;64505;51.458;7.556;2023-02-01T09:11:23;13.80;;;3.50;;
75774;SDS011;64505;51.458;7.556;2023-02-01T09:13:24;18.85;;;4.13;;
75774;SDS011;64505;51.458;7.556;2023-02-01T09:15:25;12.52;;;3.83;;
75774;SDS011;64505;51.458;7.556;2023-02-01T09:17:27;14.73;;;3.78;;
75774;SDS011;64505;51.458;7.556;2023-02-01T09:19:30;14.18;;;3.60;;
75774;SDS011;64505;51.458;7.556;2023-02-01T09:21:32;12.93;;;3.55;;
75774;SDS011;64505;51.458;7.556;2023-02-01T09:23:34;10.48;;;3.05;;
75774;SDS011;64505;51.458;7.556;2023-02-01T09:25:36;16.60;;;3.70;;
75774;SDS011;64505;51.458;7.556;2023-02-01T09:27:39;22.17;;;3.95;;
75774;SDS011;64505;51.458;7.556;2023-02-01T09:29:40;15.65;;;4.15;;
75774;SDS011;64505;51.458;7.556;2023-02-01T09:31:42;12.00;;;3.28;;
75774;SDS011;64505;51.458;7.556;2023-02-01T09:33:57;17.40;;;3.65;;
75774;SDS011;64505;51.458;7.556;2023-02-01T09:35:59;10.98;;;3.45;;
75774;SDS011;64505;51.458;7.556;2023-02-01T09:38:02;15.63;;;3.47;;
75774;SDS011;64505;51.458;7.556;2023-02-01T09:40:03;17.63;;;3.50;;
75774;SDS011;64505;51.458;7.556;2023-02-01T09:46:57;11.57;;;3.42;;
75774;SDS011;64505;51.458;7.556;2023-02-01T09:49:04;18.08;;;3.63;;
75774;SDS011;64505;51.458;7.556;2023-02-01T09:51:14;16.67;;;3.92;;
75774;SDS011;64505;51.458;7.556;2023-02-01T09:55:38;12.85;;;3.35;;
75774;SDS011;64505;51.458;7.556;2023-02-01T09:57:48;15.60;;;3.65;;
75774;SDS011;64505;51.458;7.556;2023-02-01T09:59:57;15.75;;;4.03;;
75774;SDS011;64505;51.458;7.556;2023-02-01T10:02:11;12.68;;;3.33;;
75774;SDS011;64505;51.458;7.556;2023-02-01T10:04:16;16.10;;;4.38;;
75774;SDS011;64505;51.458;7.556;2023-02-01T10:06:27;14.05;;;4.25;;
75774;SDS011;64505;51.458;7.556;2023-02-01T10:10:51;14.13;;;4.03;;
75774;SDS011;64505;51.458;7.556;2023-02-01T10:13:04;9.63;;;3.60;;
75774;SDS011;64505;51.458;7.556;2023-02-01T10:22:40;14.43;;;4.28;;
75774;SDS011;64505;51.458;7.556;2023-02-01T10:27:40;11.65;;;3.72;;
75774;SDS011;64505;51.458;7.556;2023-02-01T10:29:44;13.07;;;4.43;;
75774;SDS011;64505;51.458;7.556;2023-02-01T10:31:48;17.52;;;4.85;;
75774;SDS011;64505;51.458;7.556;2023-02-01T10:33:56;16.15;;;4.90;;
75774;SDS011;64505;51.458;7.556;2023-02-01T10:40:29;11.60;;;3.78;;
75774;SDS011;64505;51.458;7.556;2023-02-01T10:42:31;15.80;;;4.22;;
75774;SDS011;64505;51.458;7.556;2023-02-01T10:44:41;16.33;;;4.75;;
75774;SDS011;64505;51.458;7.556;2023-02-01T10:46:46;21.58;;;4.57;;
75774;SDS011;64505;51.458;7.556;2023-02-01T10:48:48;16.98;;;3.97;;
75774;SDS011;64505;51.458;7.556;2023-02-01T10:53:03;16.15;;;4.47;;
75774;SDS011;64505;51.458;7.556;2023-02-01T10:55:25;12.63;;;3.40;;
75774;SDS011;64505;51.458;7.556;2023-02-01T10:57:28;15.73;;;4.65;;
75774;SDS011;64505;51.458;7.556;2023-02-01T10:59:32;15.18;;;4.68;;
75774;SDS011;64505;51.458;7.556;2023-02-01T11:01:37;21.42;;;4.85;;
75774;SDS011;64505;51.458;7.556;2023-02-01T11:05:44;12.85;;;4.55;;
75774;SDS011;64505;51.458;7.556;2023-02-01T11:07:51;11.38;;;4.22;;
75774;SDS011;64505;51.458;7.556;2023-02-01T11:09:55;15.73;;;4.10;;
75774;SDS011;64505;51.458;7.556;2023-02-01T11:11:59;12.02;;;4.40;;
75774;SDS011;64505;51.458;7.556;2023-02-01T11:14:04;17.40;;;4.43;;
75774;SDS011;64505;51.458;7.556;2023-02-01T11:16:15;7.78;;;2.95;;
75774;SDS011;64505;51.458;7.556;2023-02-01T11:18:20;13.73;;;3.40;;
75774;SDS011;64505;51.458;7.556;2023-02-01T11:22:32;16.63;;;3.60;;
75774;SDS011;64505;51.458;7.556;2023-02-01T11:24:35;16.60;;;4.32;;
75774;SDS011;64505;51.458;7.556;2023-02-01T11:26:39;14.35;;;3.88;;
75774;SDS011;64505;51.458;7.556;2023-02-01T11:28:45;14.38;;;3.42;;
75774;SDS011;64505;51.458;7.556;2023-02-01T11:30:53;10.93;;;3.55;;
75774;SDS011;64505;51.458;7.556;2023-02-01T11:32:57;13.85;;;3.60;;
75774;SDS011;64505;51.458;7.556;2023-02-01T11:35:01;11.05;;;4.43;;
75774;SDS011;64505;51.458;7.556;2023-02-01T11:37:06;11.02;;;3.85;;
75774;SDS011;64505;51.458;7.556;2023-02-01T11:39:24;15.25;;;4.10;;
75774;SDS011;64505;51.458;7.556;2023-02-01T11:41:29;11.48;;;4.22;;
75774;SDS011;64505;51.458;7.556;2023-02-01T11:43:32;11.75;;;3.80;;
75774;SDS011;64505;51.458;7.556;2023-02-01T11:45:33;16.83;;;4.43;;
75774;SDS011;64505;51.458;7.556;2023-02-01T11:47:44;13.93;;;4.05;;
75774;SDS011;64505;51.458;7.556;2023-02-01T11:49:47;16.92;;;3.88;;
75774;SDS011;64505;51.458;7.556;2023-02-01T11:54:25;13.93;;;3.97;;
75774;SDS011;64505;51.458;7.556;2023-02-01T11:56:33;16.48;;;4.25;;
75774;SDS011;64505;51.458;7.556;2023-02-01T11:58:48;16.27;;;3.47;;
75774;SDS011;64505;51.458;7.556;2023-02-01T12:01:05;20.33;;;4.50;;
75774;SDS011;64505;51.458;7.556;2023-02-01T12:10:52;13.77;;;4.38;;
75774;SDS011;64505;51.458;7.556;2023-02-01T12:20:10;12.68;;;4.07;;
75774;SDS011;64505;51.458;7.556;2023-02-01T12:25:22;12.05;;;3.97;;
75774;SDS011;64505;51.458;7.556;2023-02-01T12:32:34;7.55;;;3.38;;
75774;SDS011;64505;51.458;7.556;2023-02-01T12:44:04;11.57;;;3.70;;
75774;SDS011;64505;51.458;7.556;2023-02-01T12:46:31;16.40;;;3.95;;
75774;SDS011;64505;51.458;7.556;2023-02-01T12:49:00;21.10;;;4.07;;
75774;SDS011;64505;51.458;7.556;2023-02-01T12:56:07;14.32;;;3.67;;
75774;SDS011;64505;51.458;7.556;2023-02-01T12:58:22;9.85;;;3.22;;
75774;SDS011;64505;51.458;7.556;2023-02-01T13:00:39;11.43;;;3.70;;
75774;SDS011;64505;51.458;7.556;2023-02-01T13:02:48;10.88;;;3.33;;
75774;SDS011;64505;51.458;7.556;2023-02-01T13:07:20;13.10;;;2.88;;
75774;SDS011;64505;51.458;7.556;2023-02-01T13:09:27;12.05;;;3.47;;
75774;SDS011;64505;51.458;7.556;2023-02-01T13:11:39;16.52;;;3.28;;
75774;SDS011;64505;51.458;7.556;2023-02-01T13:16:20;15.57;;;3.40;;
75774;SDS011;64505;51.458;7.556;2023-02-01T13:18:34;12.98;;;3.15;;
75774;SDS011;64505;51.458;7.556;2023-02-01T13:23:27;11.65;;;2.65;;
75774;SDS011;64505;51.458;7.556;2023-02-01T13:25:38;14.15;;;3.10;;
75774;SDS011;64505;51.458;7.556;2023-02-01T13:27:48;11.93;;;3.42;;
75774;SDS011;64505;51.458;7.556;2023-02-01T13:32:06;11.45;;;2.50;;
75774;SDS011;64505;51.458;7.556;2023-02-01T13:36:31;14.15;;;3.47;;
75774;SDS011;64505;51.458;7.556;2023-02-01T13:43:19;10.60;;;2.70;;
75774;SDS011;64505;51.458;7.556;2023-02-01T13:45:33;13.85;;;2.55;;
75774;SDS011;64505;51.458;7.556;2023-02-01T13:47:41;12.95;;;2.63;;
75774;SDS011;64505;51.458;7.556;2023-02-01T13:49:44;10.27;;;2.70;;
75774;SDS011;64505;51.458;7.556;2023-02-01T13:51:48;14.90;;;2.97;;
75774;SDS011;64505;51.458;7.556;2023-02-01T13:53:51;17.80;;;3.00;;
75774;SDS011;64505;51.458;7.556;2023-02-01T13:56:00;9.00;;;1.80;;
75774;SDS011;64505;51.458;7.556;2023-02-01T13:58:13;15.93;;;2.90;;
75774;SDS011;64505;51.458;7.556;2023-02-01T14:04:46;10.63;;;2.45;;
75774;SDS011;64505;51.458;7.556;2023-02-01T14:06:52;10.93;;;1.80;;
75774;SDS011;64505;51.458;7.556;2023-02-01T14:11:32;9.70;;;1.83;;
75774;SDS011;64505;51.458;7.556;2023-02-01T14:13:37;10.82;;;2.33;;
75774;SDS011;64505;51.458;7.556;2023-02-01T14:15:40;12.95;;;2.90;;
75774;SDS011;64505;51.458;7.556;2023-02-01T14:20:47;13.55;;;2.20;;
75774;SDS011;64505;51.458;7.556;2023-02-01T14:23:03;10.45;;;2.08;;
75774;SDS011;64505;51.458;7.556;2023-02-01T14:25:14;6.47;;;1.73;;
75774;SDS011;64505;51.458;7.556;2023-02-01T14:27:19;18.15;;;2.22;;